createdAt,value
2019-05-22T00:00:30.946Z,2.93
2019-05-22T00:03:00.540Z,3.10
2019-05-22T00:05:32.083Z,3.50
2019-05-22T00:08:02.794Z,3.40
2019-05-22T00:10:33.365Z,3.07
2019-05-22T00:13:06.687Z,2.90
2019-05-22T00:15:39.940Z,3.47
2019-05-22T00:18:10.285Z,3.30
2019-05-22T00:20:39.286Z,3.13
2019-05-22T00:23:10.572Z,3.00
2019-05-22T00:25:40.980Z,3.60
2019-05-22T00:28:10.439Z,3.63
2019-05-22T00:30:44.133Z,3.50
2019-05-22T00:33:14.220Z,3.67
2019-05-22T00:35:44.920Z,3.77
2019-05-22T00:38:15.106Z,3.43
2019-05-22T00:40:47.583Z,4.07
2019-05-22T00:43:18.719Z,4.10
2019-05-22T00:45:50.951Z,4.40
2019-05-22T00:48:22.901Z,4.40
2019-05-22T00:51:12.495Z,4.47
2019-05-22T00:53:58.774Z,4.90
2019-05-22T00:56:37.090Z,5.27
2019-05-22T00:59:13.898Z,5.40
2019-05-22T01:01:47.819Z,4.93
2019-05-22T01:04:20.364Z,4.03
2019-05-22T01:06:51.178Z,5.70
2019-05-22T01:09:31.726Z,4.97
2019-05-22T01:12:02.631Z,4.03
2019-05-22T01:14:42.610Z,4.27
2019-05-22T01:17:03.933Z,4.10
2019-05-22T01:19:34.123Z,4.30
2019-05-22T01:22:04.780Z,4.23
2019-05-22T01:24:34.940Z,4.03
2019-05-22T01:27:04.517Z,4.00
2019-05-22T01:29:34.220Z,3.83
2019-05-22T01:32:18.540Z,4.00
2019-05-22T01:34:47.484Z,3.80
2019-05-22T01:37:18.519Z,3.87
2019-05-22T01:40:15.503Z,3.43
2019-05-22T01:42:48.208Z,3.50
2019-05-22T01:45:18.508Z,3.17
2019-05-22T01:47:50.945Z,3.40
2019-05-22T01:50:24.274Z,3.50
2019-05-22T01:52:55.444Z,3.40
2019-05-22T01:55:25.973Z,3.37
2019-05-22T01:57:55.883Z,3.63
2019-05-22T02:00:24.832Z,3.43
2019-05-22T02:02:53.922Z,3.90
2019-05-22T02:05:25.060Z,3.97
2019-05-22T02:07:54.048Z,4.63
2019-05-22T02:10:27.099Z,4.20
2019-05-22T02:12:59.458Z,4.53
2019-05-22T02:15:28.451Z,4.50
2019-05-22T02:17:58.183Z,4.27
2019-05-22T02:20:29.243Z,3.87
2019-05-22T02:22:58.454Z,4.70
2019-05-22T02:25:28.976Z,4.23
2019-05-22T02:27:58.569Z,4.17
2019-05-22T02:30:29.488Z,4.30
2019-05-22T02:32:58.871Z,4.30
2019-05-22T02:35:29.231Z,4.60
2019-05-22T02:37:58.825Z,4.57
2019-05-22T02:40:29.413Z,4.70
2019-05-22T02:42:58.577Z,4.20
2019-05-22T02:45:27.523Z,4.90
2019-05-22T02:47:57.164Z,4.23
2019-05-22T02:50:27.453Z,5.93
2019-05-22T02:52:57.341Z,4.70
2019-05-22T02:55:27.147Z,4.50
2019-05-22T02:57:56.455Z,4.13
2019-05-22T03:00:27.040Z,4.10
2019-05-22T03:02:57.405Z,4.30
2019-05-22T03:05:26.650Z,4.27
2019-05-22T03:07:57.543Z,4.07
2019-05-22T03:10:28.805Z,4.90
2019-05-22T03:12:58.409Z,4.20
2019-05-22T03:15:28.133Z,3.87
2019-05-22T03:18:01.614Z,4.57
2019-05-22T03:20:32.221Z,4.80
2019-05-22T03:23:07.970Z,4.90
2019-05-22T03:25:38.366Z,4.50
2019-05-22T03:28:08.108Z,4.50
2019-05-22T03:30:39.374Z,4.37
2019-05-22T03:33:10.216Z,4.67
2019-05-22T03:35:43.846Z,4.20
2019-05-22T03:38:13.388Z,5.03
2019-05-22T03:40:42.479Z,5.53
2019-05-22T03:43:18.790Z,5.20
2019-05-22T03:45:49.192Z,4.20
2019-05-22T03:48:18.490Z,4.67
2019-05-22T03:50:47.888Z,5.80
2019-05-22T03:53:18.030Z,5.40
2019-05-22T03:55:48.513Z,4.77
2019-05-22T03:58:18.033Z,4.80
2019-05-22T04:00:47.632Z,5.10
2019-05-22T04:03:16.987Z,5.73
2019-05-22T04:05:47.464Z,6.20
2019-05-22T04:08:16.576Z,5.97
2019-05-22T04:10:51.946Z,6.00
2019-05-22T04:13:20.908Z,5.87
2019-05-22T04:15:50.506Z,4.70
2019-05-22T04:18:22.859Z,5.00
2019-05-22T04:20:51.062Z,4.67
2019-05-22T04:23:20.132Z,4.40
2019-05-22T04:25:53.294Z,4.30
2019-05-22T04:28:20.500Z,4.57
2019-05-22T04:30:49.708Z,4.43
2019-05-22T04:33:18.654Z,4.30
2019-05-22T04:35:49.118Z,3.77
2019-05-22T04:38:18.587Z,4.17
2019-05-22T04:40:48.815Z,4.53
2019-05-22T04:43:20.639Z,4.73
2019-05-22T04:45:50.879Z,4.60
2019-05-22T04:48:20.556Z,4.03
2019-05-22T04:50:51.938Z,4.80
2019-05-22T04:53:21.721Z,6.33
2019-05-22T04:55:51.428Z,3.97
2019-05-22T04:58:24.420Z,4.27
2019-05-22T05:00:54.404Z,5.20
2019-05-22T05:03:23.421Z,4.10
2019-05-22T05:05:52.827Z,4.77
2019-05-22T05:08:21.804Z,4.70
2019-05-22T05:10:52.959Z,4.37
2019-05-22T05:13:22.020Z,3.60
2019-05-22T05:15:51.099Z,4.30
2019-05-22T05:18:20.209Z,4.23
2019-05-22T05:20:49.323Z,4.20
2019-05-22T05:23:18.330Z,4.30
2019-05-22T05:25:47.453Z,4.03
2019-05-22T05:28:16.524Z,4.63
2019-05-22T05:30:45.691Z,4.27
2019-05-22T05:33:14.887Z,4.13
2019-05-22T05:35:44.540Z,4.87
2019-05-22T05:38:14.200Z,3.90
2019-05-22T05:40:43.774Z,4.13
2019-05-22T05:43:13.728Z,3.93
2019-05-22T05:45:43.619Z,4.40
2019-05-22T05:48:14.131Z,4.00
2019-05-22T05:50:59.653Z,5.27
2019-05-22T05:53:29.447Z,4.37
2019-05-22T05:56:23.204Z,4.33
2019-05-22T05:58:52.162Z,3.50
2019-05-22T06:01:26.123Z,2.77
2019-05-22T06:03:55.727Z,4.57
2019-05-22T06:06:50.017Z,2.77
2019-05-22T06:09:21.356Z,2.93
2019-05-22T06:11:55.824Z,2.80
2019-05-22T06:14:27.336Z,2.87
2019-05-22T06:17:14.038Z,3.40
2019-05-22T06:19:45.261Z,3.23
2019-05-22T06:22:15.127Z,2.70
2019-05-22T06:24:57.031Z,3.13
2019-05-22T06:27:30.875Z,2.73
2019-05-22T06:30:02.773Z,2.60
2019-05-22T06:32:54.812Z,2.83
2019-05-22T06:35:26.099Z,3.07
2019-05-22T06:38:01.954Z,3.03
2019-05-22T06:40:31.019Z,2.47
2019-05-22T06:43:37.381Z,2.73
2019-05-22T06:46:07.434Z,2.97
2019-05-22T06:48:36.448Z,3.10
2019-05-22T06:51:18.518Z,2.20
2019-05-22T06:53:35.967Z,2.73
2019-05-22T06:56:05.281Z,1.90
2019-05-22T06:58:34.573Z,2.80
2019-05-22T07:01:04.247Z,2.40
2019-05-22T07:03:33.707Z,2.87
2019-05-22T07:06:02.911Z,4.43
2019-05-22T07:08:32.095Z,2.40
2019-05-22T07:11:01.331Z,2.50
2019-05-22T07:13:31.227Z,2.90
2019-05-22T07:16:02.062Z,2.37
2019-05-22T07:18:34.268Z,2.70
2019-05-22T07:21:03.672Z,2.30
2019-05-22T07:23:34.736Z,2.30
2019-05-22T07:26:04.211Z,2.63
2019-05-22T07:28:33.354Z,1.80
2019-05-22T07:31:02.908Z,1.80
2019-05-22T07:33:33.767Z,2.83
2019-05-22T07:36:09.885Z,2.10
2019-05-22T07:38:35.727Z,1.83
2019-05-22T07:41:05.295Z,2.10
2019-05-22T07:43:34.498Z,1.50
2019-05-22T07:46:03.576Z,1.80
2019-05-22T07:48:32.677Z,2.10
2019-05-22T07:51:02.654Z,2.70
2019-05-22T07:53:31.716Z,1.67
2019-05-22T07:56:02.649Z,2.90
2019-05-22T07:58:32.062Z,1.80
2019-05-22T08:01:02.283Z,1.83
2019-05-22T08:03:31.815Z,3.40
2019-05-22T08:06:01.002Z,1.73
2019-05-22T08:08:31.703Z,2.80
2019-05-22T08:11:01.020Z,2.10
2019-05-22T08:13:31.093Z,1.67
2019-05-22T08:16:00.400Z,1.53
2019-05-22T08:18:31.635Z,1.47
2019-05-22T08:21:00.695Z,1.60
2019-05-22T08:23:30.123Z,1.90
2019-05-22T08:25:59.685Z,1.93
2019-05-22T08:28:33.122Z,1.57
2019-05-22T08:31:03.401Z,2.50
2019-05-22T08:33:33.805Z,1.60
2019-05-22T08:36:03.814Z,1.30
2019-05-22T08:38:33.774Z,1.13
2019-05-22T08:41:03.988Z,2.03
2019-05-22T08:43:55.912Z,1.73
2019-05-22T08:46:05.971Z,2.03
2019-05-22T08:48:36.384Z,1.67
2019-05-22T08:51:05.871Z,1.40
2019-05-22T08:53:46.535Z,1.10
2019-05-22T08:56:07.251Z,1.10
2019-05-22T08:58:38.924Z,1.30
2019-05-22T09:01:08.423Z,1.17
2019-05-22T09:03:37.658Z,0.90
2019-05-22T09:06:07.150Z,0.90
2019-05-22T09:08:36.218Z,1.33
2019-05-22T09:11:05.267Z,1.33
2019-05-22T09:13:34.465Z,1.13
2019-05-22T09:16:03.899Z,1.00
2019-05-22T09:18:36.503Z,1.30
2019-05-22T09:21:06.530Z,2.27
2019-05-22T09:23:36.811Z,2.07
2019-05-22T09:26:07.323Z,2.20
2019-05-22T09:28:37.070Z,2.50
2019-05-22T09:31:06.412Z,1.57
2019-05-22T09:33:36.302Z,2.73
2019-05-22T09:36:05.664Z,1.80
2019-05-22T09:38:34.833Z,0.90
2019-05-22T09:41:03.856Z,1.20
2019-05-22T09:43:33.511Z,2.40
2019-05-22T09:46:02.540Z,1.93
2019-05-22T09:48:31.640Z,3.43
2019-05-22T09:51:01.445Z,1.30
2019-05-22T09:53:31.229Z,1.50
2019-05-22T09:56:00.471Z,1.70
2019-05-22T09:58:30.062Z,2.37
2019-05-22T10:00:59.386Z,1.70
2019-05-22T10:03:28.357Z,2.10
2019-05-22T10:05:57.567Z,1.40
2019-05-22T10:08:26.762Z,1.40
2019-05-22T10:10:56.550Z,1.80
2019-05-22T10:13:29.107Z,2.23
2019-05-22T10:15:57.851Z,1.60
2019-05-22T10:18:27.287Z,1.20
2019-05-22T10:20:57.472Z,1.20
2019-05-22T10:23:27.422Z,1.60
2019-05-22T10:25:56.638Z,1.00
2019-05-22T10:28:26.317Z,1.70
2019-05-22T10:30:56.638Z,1.40
2019-05-22T10:33:26.198Z,1.30
2019-05-22T10:35:55.260Z,1.40
2019-05-22T10:38:25.007Z,1.20
2019-05-22T10:40:57.938Z,1.33
2019-05-22T10:43:24.547Z,1.07
2019-05-22T10:45:53.908Z,1.17
2019-05-22T10:48:23.131Z,1.83
2019-05-22T10:50:52.269Z,1.40
2019-05-22T10:53:32.862Z,1.87
2019-05-22T10:55:53.067Z,1.60
2019-05-22T10:58:22.059Z,2.10
2019-05-22T11:00:51.918Z,1.30
2019-05-22T11:03:21.129Z,1.20
2019-05-22T11:06:05.873Z,1.17
2019-05-22T11:08:21.188Z,1.80
2019-05-22T11:10:50.326Z,2.40
2019-05-22T11:13:19.524Z,1.70
2019-05-22T11:15:48.666Z,1.00
2019-05-22T11:18:17.883Z,1.23
2019-05-22T11:20:47.576Z,1.30
2019-05-22T11:23:16.635Z,1.30
2019-05-22T11:25:45.756Z,1.30
2019-05-22T11:28:14.886Z,1.37
2019-05-22T11:30:44.905Z,1.30
2019-05-22T11:33:14.697Z,1.37
2019-05-22T11:35:44.373Z,1.50
2019-05-22T11:38:13.478Z,1.43
2019-05-22T11:40:42.644Z,1.70
2019-05-22T11:43:13.122Z,1.10
2019-05-22T11:45:45.230Z,1.57
2019-05-22T11:48:12.912Z,1.43
2019-05-22T11:50:43.295Z,1.50
2019-05-22T11:53:12.483Z,2.70
2019-05-22T11:55:45.634Z,1.50
2019-05-22T11:58:12.266Z,1.80
2019-05-22T12:00:41.270Z,1.57
2019-05-22T12:03:10.383Z,2.10
2019-05-22T12:05:39.397Z,1.70
2019-05-22T12:08:08.694Z,2.50
2019-05-22T12:10:38.110Z,1.80
2019-05-22T12:13:08.535Z,1.47
2019-05-22T12:15:38.385Z,2.03
2019-05-22T12:18:08.713Z,1.23
2019-05-22T12:20:37.788Z,11.50
2019-05-22T12:23:06.704Z,2.73
2019-05-22T12:25:36.039Z,1.50
2019-05-22T12:28:05.222Z,1.10
2019-05-22T12:30:36.571Z,1.67
2019-05-22T12:33:12.734Z,1.60
2019-05-22T12:35:37.298Z,1.90
2019-05-22T12:38:07.238Z,1.73
2019-05-22T12:40:36.521Z,1.60
2019-05-22T12:43:06.469Z,2.10
2019-05-22T12:45:35.774Z,1.70
2019-05-22T12:48:05.850Z,1.33
2019-05-22T12:50:35.055Z,1.60
2019-05-22T12:53:04.627Z,1.67
2019-05-22T12:55:33.835Z,1.00
2019-05-22T12:58:03.201Z,1.90
2019-05-22T13:00:33.591Z,1.60
2019-05-22T13:03:03.508Z,2.67
2019-05-22T13:05:35.251Z,1.90
2019-05-22T13:08:05.038Z,3.40
2019-05-22T13:10:34.485Z,2.93
2019-05-22T13:13:03.447Z,3.13
2019-05-22T13:15:32.995Z,2.00
2019-05-22T13:18:06.744Z,2.70
2019-05-22T13:20:43.228Z,3.33
2019-05-22T13:23:10.917Z,2.23
2019-05-22T13:25:41.138Z,1.73
2019-05-22T13:28:11.507Z,1.60
2019-05-22T13:30:42.584Z,1.60
2019-05-22T13:33:15.892Z,1.80
2019-05-22T13:35:45.283Z,1.70
2019-05-22T13:38:15.352Z,1.50
2019-05-22T13:40:45.477Z,1.23
2019-05-22T13:43:14.554Z,1.40
2019-05-22T13:45:43.625Z,2.40
2019-05-22T13:48:12.856Z,1.50
2019-05-22T13:50:42.522Z,2.07
2019-05-22T13:53:13.984Z,1.93
2019-05-22T13:55:43.086Z,1.80
2019-05-22T13:58:12.655Z,1.57
2019-05-22T14:00:41.742Z,1.60
2019-05-22T14:03:11.192Z,1.60
2019-05-22T14:05:42.081Z,1.80
2019-05-22T14:08:11.263Z,1.67
2019-05-22T14:10:40.707Z,1.80
2019-05-22T14:13:09.952Z,2.50
2019-05-22T14:15:52.107Z,1.50
2019-05-22T14:18:09.839Z,1.80
2019-05-22T14:20:38.915Z,1.73
2019-05-22T14:23:07.927Z,1.50
2019-05-22T14:25:37.049Z,1.70
2019-05-22T14:28:06.398Z,1.60
2019-05-22T14:30:35.493Z,1.70
2019-05-22T14:33:05.583Z,1.53
2019-05-22T14:35:47.465Z,1.63
2019-05-22T14:38:09.556Z,1.57
2019-05-22T14:40:38.882Z,1.60
2019-05-22T14:43:08.055Z,1.70
2019-05-22T14:45:37.696Z,1.60
2019-05-22T14:48:06.734Z,1.70
2019-05-22T14:50:35.685Z,1.60
2019-05-22T14:53:04.898Z,1.90
2019-05-22T14:55:34.833Z,1.50
2019-05-22T14:58:04.947Z,1.60
2019-05-22T15:00:34.499Z,1.57
2019-05-22T15:03:03.813Z,1.47
2019-05-22T15:05:32.965Z,1.27
2019-05-22T15:08:01.915Z,1.60
2019-05-22T15:10:31.259Z,1.47
2019-05-22T15:13:00.254Z,1.60
2019-05-22T15:15:29.363Z,1.70
2019-05-22T15:17:58.656Z,1.60
2019-05-22T15:20:35.015Z,1.50
2019-05-22T15:23:04.134Z,1.60
2019-05-22T15:25:33.203Z,1.70
2019-05-22T15:28:02.323Z,1.47
2019-05-22T15:30:31.413Z,1.67
2019-05-22T15:33:00.483Z,1.60
2019-05-22T15:35:29.863Z,1.47
2019-05-22T15:37:59.811Z,1.20
2019-05-22T15:40:29.522Z,1.90
2019-05-22T15:42:58.743Z,1.80
2019-05-22T15:45:29.147Z,1.63
2019-05-22T15:48:01.190Z,1.70
2019-05-22T15:50:31.926Z,1.60
2019-05-22T15:53:05.084Z,1.77
2019-05-22T15:55:33.911Z,1.93
2019-05-22T15:58:04.429Z,2.00
2019-05-22T16:00:35.786Z,1.80
2019-05-22T16:03:09.764Z,1.70
2019-05-22T16:05:40.256Z,1.70
2019-05-22T16:08:09.607Z,1.70
2019-05-22T16:10:39.152Z,1.80
2019-05-22T16:13:09.156Z,1.83
2019-05-22T16:15:38.603Z,2.00
2019-05-22T16:18:12.116Z,2.00
2019-05-22T16:20:39.994Z,1.93
2019-05-22T16:23:09.487Z,2.00
2019-05-22T16:25:38.479Z,2.10
2019-05-22T16:28:08.787Z,1.87
2019-05-22T16:30:38.544Z,2.10
2019-05-22T16:33:08.383Z,2.30
2019-05-22T16:35:37.548Z,2.27
2019-05-22T16:38:06.854Z,2.00
2019-05-22T16:40:36.295Z,2.60
2019-05-22T16:43:05.383Z,2.30
2019-05-22T16:45:36.051Z,2.10
2019-05-22T16:48:05.549Z,2.23
2019-05-22T16:50:34.796Z,2.10
2019-05-22T16:53:05.777Z,1.97
2019-05-22T16:55:35.473Z,2.20
2019-05-22T16:58:04.768Z,2.33
2019-05-22T17:00:33.956Z,2.17
2019-05-22T17:03:04.010Z,2.00
2019-05-22T17:05:33.632Z,2.30
2019-05-22T17:08:03.564Z,2.30
2019-05-22T17:10:33.080Z,2.43
2019-05-22T17:13:02.493Z,2.40
2019-05-22T17:15:32.198Z,2.20
2019-05-22T17:18:01.425Z,2.60
2019-05-22T17:20:32.084Z,2.67
2019-05-22T17:23:01.567Z,2.30
2019-05-22T17:25:31.024Z,2.23
2019-05-22T17:28:00.530Z,2.20
2019-05-22T17:30:30.233Z,2.20
2019-05-22T17:33:00.567Z,2.50
2019-05-22T17:35:30.005Z,2.57
2019-05-22T17:37:59.306Z,2.20
2019-05-22T17:40:28.354Z,2.53
2019-05-22T17:42:57.426Z,2.80
2019-05-22T17:45:27.031Z,2.90
2019-05-22T17:47:56.347Z,2.50
2019-05-22T17:50:27.591Z,3.00
2019-05-22T17:52:57.968Z,3.27
2019-05-22T17:55:28.795Z,2.90
2019-05-22T17:57:58.653Z,2.53
2019-05-22T18:00:31.967Z,2.70
2019-05-22T18:03:01.906Z,3.20
2019-05-22T18:05:31.656Z,3.27
2019-05-22T18:08:00.663Z,2.93
2019-05-22T18:10:31.479Z,3.70
2019-05-22T18:13:01.078Z,3.30
2019-05-22T18:15:30.125Z,3.47
2019-05-22T18:17:59.358Z,2.97
2019-05-22T18:20:41.752Z,3.03
2019-05-22T18:22:59.594Z,2.87
2019-05-22T18:25:28.935Z,2.93
2019-05-22T18:27:58.048Z,3.40
2019-05-22T18:30:27.189Z,3.47
2019-05-22T18:32:56.359Z,3.70
2019-05-22T18:35:25.322Z,3.43
2019-05-22T18:37:54.516Z,4.00
2019-05-22T18:40:23.551Z,3.37
2019-05-22T18:42:52.831Z,3.60
2019-05-22T18:45:23.954Z,3.37
2019-05-22T18:47:54.058Z,3.33
2019-05-22T18:50:23.107Z,2.90
2019-05-22T18:52:52.359Z,2.90
2019-05-22T18:55:21.544Z,2.97
2019-05-22T18:57:50.482Z,3.03
2019-05-22T19:00:21.617Z,3.50
2019-05-22T19:02:51.270Z,3.00
2019-05-22T19:05:22.297Z,3.40
2019-05-22T19:07:51.391Z,3.50
2019-05-22T19:10:20.744Z,3.30
2019-05-22T19:12:50.275Z,3.20
2019-05-22T19:15:19.993Z,3.60
2019-05-22T19:17:49.495Z,3.50
2019-05-22T19:20:18.542Z,3.30
2019-05-22T19:22:59.562Z,3.70
2019-05-22T19:25:18.261Z,3.40
2019-05-22T19:27:47.286Z,4.50
2019-05-22T19:30:18.105Z,3.63
2019-05-22T19:32:47.491Z,3.50
2019-05-22T19:35:16.586Z,4.00
2019-05-22T19:37:45.836Z,4.30
2019-05-22T19:40:15.619Z,4.43
2019-05-22T19:42:44.631Z,4.37
2019-05-22T19:45:14.720Z,4.03
2019-05-22T19:47:49.748Z,3.77
2019-05-22T19:50:23.363Z,5.00
2019-05-22T19:52:50.644Z,4.50
2019-05-22T19:55:19.844Z,4.93
2019-05-22T19:57:48.830Z,5.07
2019-05-22T20:00:18.284Z,4.90
2019-05-22T20:02:50.671Z,4.87
2019-05-22T20:05:18.951Z,4.33
2019-05-22T20:07:48.003Z,4.70
2019-05-22T20:10:17.199Z,5.13
2019-05-22T20:12:46.193Z,4.80
2019-05-22T20:15:15.738Z,4.27
2019-05-22T20:17:45.163Z,3.90
2019-05-22T20:20:15.821Z,3.90
2019-05-22T20:22:45.800Z,3.63
2019-05-22T20:25:15.433Z,3.90
2019-05-22T20:27:45.829Z,3.40
2019-05-22T20:30:15.692Z,3.20
2019-05-22T20:32:45.074Z,3.10
2019-05-22T20:35:15.928Z,2.87
2019-05-22T20:37:46.032Z,2.90
2019-05-22T20:40:16.603Z,3.07
2019-05-22T20:42:46.611Z,3.10
2019-05-22T20:45:17.476Z,3.10
2019-05-22T20:47:46.744Z,3.10
2019-05-22T20:50:16.943Z,2.70
2019-05-22T20:52:45.930Z,2.93
2019-05-22T20:55:16.418Z,3.23
2019-05-22T20:57:45.376Z,3.00
2019-05-22T21:00:17.083Z,2.90
2019-05-22T21:02:46.543Z,2.60
2019-05-22T21:05:16.131Z,2.33
2019-05-22T21:07:47.755Z,2.07
2019-05-22T21:10:16.885Z,1.87
2019-05-22T21:12:46.319Z,1.87
2019-05-22T21:15:16.116Z,2.00
2019-05-22T21:17:45.453Z,1.70
2019-05-22T21:20:17.232Z,1.47
2019-05-22T21:22:46.203Z,1.77
2019-05-22T21:25:15.702Z,1.80
2019-05-22T21:27:44.695Z,1.40
2019-05-22T21:30:15.553Z,1.50
2019-05-22T21:32:45.317Z,1.70
2019-05-22T21:35:16.404Z,1.57
2019-05-22T21:37:45.407Z,1.80
2019-05-22T21:40:15.132Z,1.23
2019-05-22T21:42:45.490Z,1.40
2019-05-22T21:45:16.296Z,1.27
2019-05-22T21:47:46.111Z,1.37
2019-05-22T21:50:15.635Z,1.50
2019-05-22T21:52:44.591Z,1.27
2019-05-22T21:55:13.917Z,1.40
2019-05-22T21:57:43.467Z,1.87
2019-05-22T22:00:16.677Z,1.50
2019-05-22T22:02:47.109Z,1.80
2019-05-22T22:05:18.067Z,1.50
2019-05-22T22:07:47.423Z,1.70
2019-05-22T22:10:17.285Z,1.33
2019-05-22T22:12:47.834Z,1.73
2019-05-22T22:15:17.577Z,1.50
2019-05-22T22:17:47.663Z,1.50
2019-05-22T22:20:17.515Z,2.10
2019-05-22T22:22:48.687Z,1.80
2019-05-22T22:25:18.032Z,1.40
2019-05-22T22:27:47.423Z,2.03
2019-05-22T22:30:25.862Z,1.60
2019-05-22T22:32:56.026Z,1.80
2019-05-22T22:35:25.082Z,2.00
2019-05-22T22:37:54.896Z,1.90
2019-05-22T22:40:24.560Z,1.80
2019-05-22T22:42:53.820Z,1.50
2019-05-22T22:45:39.839Z,1.50
2019-05-22T22:48:09.627Z,1.50
2019-05-22T22:50:39.175Z,1.63
2019-05-22T22:53:08.122Z,1.57
2019-05-22T22:55:37.951Z,1.57
2019-05-22T22:58:16.968Z,1.70
2019-05-22T23:00:42.334Z,1.60
2019-05-22T23:03:11.791Z,1.40
2019-05-22T23:05:42.488Z,1.53
2019-05-22T23:08:14.416Z,1.70
2019-05-22T23:10:44.043Z,1.53
2019-05-22T23:13:14.380Z,1.67
2019-05-22T23:15:45.007Z,1.40
2019-05-22T23:18:17.362Z,1.50
2019-05-22T23:20:46.002Z,1.63
2019-05-22T23:23:15.126Z,1.30
2019-05-22T23:25:44.103Z,1.77
2019-05-22T23:28:13.146Z,1.40
2019-05-22T23:30:42.412Z,1.40
2019-05-22T23:33:11.754Z,1.60
2019-05-22T23:35:41.953Z,1.63
2019-05-22T23:38:10.916Z,1.83
2019-05-22T23:40:40.146Z,1.57
2019-05-22T23:43:10.204Z,1.90
2019-05-22T23:45:39.284Z,2.00
2019-05-22T23:48:13.865Z,1.83
2019-05-22T23:50:43.239Z,1.87
2019-05-22T23:53:13.515Z,1.70
2019-05-22T23:55:43.157Z,1.80
2019-05-22T23:58:14.006Z,2.10
